Latest Weather Observations for Pound Creek

IDV60801

Issued at 12:22 pm EST Thursday 24 May 2018 (issued every 10 minutes, with the page automatically refreshed every 10 minutes)

About weather observations | Map of weather stations | Latest weather observations for VIC | Other Formats
Station Details ID: 085099 Name: POUND CREEK Lat: -38.63 Lon: 145.81 Height: 3.0 m
Data from the previous 72 hours. | See also: Recent months at Pound Creek
Date/Time
EST
Temp
°C
App
Temp
°C
Dew
Point
°C
Rel
Hum
%
Delta-T
°C
Wind Press
QNH
hPa
Press
MSL
hPa
Rain since
9am
mm
Dir  Spd
km/h
Gust
km/h
Spd
kts
Gust
kts
24/12:00pm 15.3 11.9 10.7 74 2.4 SW 19 28 10 15 1026.6 1026.6 0.0
24/11:30am 15.1 11.3 9.9 71 2.7 WSW 20 26 11 14 1027.0 1027.0 0.0
24/11:00am 14.5 12.2 10.5 77 2.1 SW 13 19 7 10 1027.2 1027.2 0.0
24/10:30am 14.6 12.4 10.8 78 2.0 SW 13 19 7 10 1027.3 1027.3 0.0
24/10:00am 14.2 11.1 10.2 77 2.1 SW 17 24 9 13 1027.3 1027.3 0.0
24/09:30am 14.6 12.0 10.6 77 2.1 SW 15 19 8 10 1027.2 1027.2 0.0
24/09:00am 14.2 11.6 10.8 80 1.8 SSW 15 20 8 11 1027.1 1027.1 0.4
24/08:30am 14.2 10.6 8.4 68 2.9 WSW 17 22 9 12 1026.9 1026.9 0.4
24/08:00am 14.2 10.0 7.3 63 3.4 SW 19 24 10 13 1026.7 1026.7 0.4
24/07:30am 14.1 9.7 7.6 65 3.2 SW 20 32 11 17 1026.6 1026.6 0.4
24/07:00am 14.2 10.2 8.2 67 3.0 SW 19 26 10 14 1026.3 1026.3 0.4
24/06:30am 14.1 9.9 7.6 65 3.2 WSW 19 26 10 14 1026.1 1026.1 0.4
24/06:00am 13.9 11.3 9.3 74 2.3 WSW 13 19 7 10 1025.9 1025.9 0.4
24/05:30am 13.8 10.6 8.6 71 2.6 WSW 15 20 8 11 1025.6 1025.6 0.4
24/05:00am 13.9 10.7 8.5 70 2.7 WSW 15 19 8 10 1025.3 1025.3 0.4
24/04:30am 14.1 10.4 8.1 67 3.0 WSW 17 24 9 13 1025.2 1025.2 0.4
24/04:00am 14.1 10.4 8.1 67 3.0 WSW 17 24 9 13 1025.1 1025.1 0.4
24/03:30am 13.9 10.1 7.7 66 3.1 SW 17 24 9 13 1025.2 1025.2 0.4
24/03:00am 13.8 10.1 9.5 75 2.2 SW 19 26 10 14 1025.6 1025.6 0.4
24/02:30am 13.6 10.3 9.6 77 2.0 SW 17 24 9 13 1025.5 1025.5 0.4
24/02:00am 13.9 9.7 9.7 76 2.1 SW 22 33 12 18 1025.3 1025.3 0.4
24/01:30am 13.8 11.4 10.0 78 2.0 WSW 13 22 7 12 1025.4 1025.4 0.4
24/01:00am 14.0 10.2 9.0 72 2.5 WSW 19 28 10 15 1025.6 1025.6 0.4
24/12:30am 14.0 11.1 9.6 75 2.3 WSW 15 24 8 13 1025.7 1025.7 0.4
24/12:00am 13.8 11.5 9.0 73 2.4 WSW 11 19 6 10 1025.7 1025.7 0.4
 
Date/Time
EST
Temp
°C
App
Temp
°C
Dew
Point
°C
Rel
Hum
%
Delta-T
°C
Wind Press
QNH
hPa
Press
MSL
hPa
Rain since
9am
mm
Dir  Spd
km/h
Gust
km/h
Spd
kts
Gust
kts
23/11:30pm 14.0 11.5 9.6 75 2.3 W 13 19 7 10 1025.8 1025.8 0.4
23/11:00pm 14.2 10.5 9.4 73 2.4 WSW 19 28 10 15 1026.0 1026.0 0.4
23/10:30pm 14.5 10.6 8.5 67 3.0 WSW 19 28 10 15 1026.0 1026.0 0.4
23/10:00pm 14.3 10.1 9.7 74 2.4 SW 22 32 12 17 1026.2 1026.2 0.4
23/09:30pm 14.3 10.7 10.5 78 2.0 WSW 20 26 11 14 1026.2 1026.2 0.4
23/09:00pm 14.2 10.7 11.0 81 1.7 SW 20 28 11 15 1026.2 1026.2 0.4
23/08:30pm 14.4 12.0 11.4 82 1.6 WSW 15 20 8 11 1025.9 1025.9 0.4
23/08:00pm 14.3 11.0 10.9 80 1.8 WSW 19 24 10 13 1025.8 1025.8 0.4
23/07:30pm 13.7 11.7 10.3 80 1.8 WNW 11 15 6 8 1025.7 1025.7 0.4
23/07:00pm 13.9 11.0 9.5 75 2.2 WNW 15 20 8 11 1025.8 1025.8 0.4
23/06:30pm 13.9 11.4 9.7 76 2.2 W 13 19 7 10 1025.8 1025.8 0.4
23/06:00pm 13.6 11.6 10.0 79 1.8 WNW 11 17 6 9 1025.6 1025.6 0.4
23/05:30pm 14.0 10.7 9.6 75 2.3 W 17 22 9 12 1025.4 1025.4 0.4
23/05:00pm 13.8 11.4 10.2 79 1.9 W 13 19 7 10 1025.3 1025.3 0.4
23/04:30pm 14.1 10.8 9.7 75 2.3 W 17 24 9 13 1025.3 1025.3 0.4
23/04:00pm 14.4 11.0 9.2 71 2.6 W 17 24 9 13 1025.4 1025.4 0.4
23/03:30pm 14.5 9.9 9.7 73 2.5 WSW 24 33 13 18 1025.3 1025.3 0.4
23/03:00pm 14.5 10.7 9.7 73 2.5 W 20 30 11 16 1025.3 1025.3 0.4
23/02:30pm 14.0 12.3 12.4 90 0.9 WNW 13 20 7 11 1025.3 1025.3 0.4
23/02:00pm 13.9 11.4 12.3 90 0.9 W 17 22 9 12 1025.2 1025.2 0.4
23/01:30pm 14.5 11.3 12.0 85 1.4 W 20 30 11 16 1025.2 1025.2 0.4
23/01:00pm 15.0 11.3 11.4 79 1.9 W 22 28 12 15 1025.3 1025.3 0.4
23/12:30pm 14.7 11.1 12.0 84 1.5 W 22 30 12 16 1025.4 1025.4 0.4
23/12:00pm 14.4 10.7 11.4 82 1.6 W 22 32 12 17 1025.9 1025.9 0.4
23/11:30am 14.7 11.7 10.7 77 2.1 WSW 17 24 9 13 1026.2 1026.2 0.4
23/11:00am 14.0 10.2 11.2 83 1.5 WSW 22 30 12 16 1026.6 1026.6 0.4
23/10:30am 13.5 10.1 11.4 87 1.1 W 20 33 11 18 1026.7 1026.7 0.4
23/10:00am 13.1 10.2 12.2 94 0.5 W 19 26 10 14 1026.7 1026.7 0.4
23/09:30am 12.9 9.7 11.8 93 0.6 W 20 32 11 17 1026.6 1026.6 0.0
23/09:00am 13.1 11.2 11.8 92 0.7 W 13 19 7 10 1026.5 1026.5 3.0
23/08:30am 12.6 9.9 11.8 95 0.4 W 17 24 9 13 1026.6 1026.6 3.0
23/08:00am 12.6 10.6 11.5 93 0.6 W 13 20 7 11 1026.4 1026.4 2.8
23/07:30am 12.4 9.6 11.3 93 0.6 W 17 24 9 13 1026.2 1026.2 2.6
23/07:00am 12.9 9.5 11.3 90 0.8 W 20 30 11 16 1025.8 1025.8 2.6
23/06:30am 12.8 10.1 11.7 93 0.6 W 17 24 9 13 1025.6 1025.6 2.6
23/06:00am 12.8 11.0 12.2 96 0.3 W 13 19 7 10 1025.4 1025.4 2.6
23/05:30am 12.8 10.2 12.0 95 0.4 W 17 22 9 12 1025.0 1025.0 2.4
23/05:00am 12.7 10.4 11.9 95 0.4 WNW 15 19 8 10 1024.7 1024.7 2.4
23/04:30am 12.4 11.6 11.6 95 0.4 WNW 7 13 4 7 1024.6 1024.6 2.4
23/04:00am 12.0 11.1 11.2 95 0.4 NW 7 9 4 5 1024.6 1024.6 2.2
23/03:30am 12.1 11.2 11.3 95 0.4 NW 7 13 4 7 1024.6 1024.6 2.2
23/03:00am 12.2 11.3 11.3 94 0.5 WNW 7 13 4 7 1024.7 1024.7 2.2
23/02:30am 12.4 11.2 11.6 95 0.4 WNW 9 13 5 7 1024.8 1024.8 2.2
23/02:00am 12.4 11.6 11.6 95 0.4 NW 7 13 4 7 1024.7 1024.7 2.0
23/01:30am 12.4 10.8 11.6 95 0.4 W 11 17 6 9 1024.8 1024.8 2.0
23/01:00am 12.5 11.7 11.6 94 0.5 NW 7 9 4 5 1024.7 1024.7 1.8
23/12:30am 12.8 11.5 11.4 91 0.7 WNW 9 15 5 8 1024.7 1024.7 1.8
23/12:00am 12.7 11.0 11.1 90 0.8 W 11 15 6 8 1024.8 1024.8 1.8
 
Date/Time
EST
Temp
°C
App
Temp
°C
Dew
Point
°C
Rel
Hum
%
Delta-T
°C
Wind Press
QNH
hPa
Press
MSL
hPa
Rain since
9am
mm
Dir  Spd
km/h
Gust
km/h
Spd
kts
Gust
kts
22/11:30pm 13.1 11.5 11.5 90 0.8 W 11 15 6 8 1024.9 1024.9 1.8
22/11:00pm 13.1 11.5 11.5 90 0.8 W 11 15 6 8 1025.1 1025.1 1.8
22/10:30pm 13.4 11.0 11.5 88 1.0 WSW 15 22 8 12 1025.2 1025.2 1.8
22/10:00pm 13.3 10.8 11.2 87 1.1 WSW 15 20 8 11 1025.3 1025.3 1.8
22/09:30pm 13.4 11.0 11.5 88 1.0 WSW 15 19 8 10 1025.1 1025.1 1.8
22/09:00pm 13.4 11.1 11.8 90 0.9 SW 15 20 8 11 1024.7 1024.7 1.8
22/08:30pm 13.4 10.7 11.6 89 1.0 SW 17 24 9 13 1024.8 1024.8 1.8
22/08:00pm 13.4 10.1 11.6 89 1.0 WSW 20 26 11 14 1024.5 1024.5 1.8
22/07:30pm 13.3 10.7 11.9 91 0.7 SW 17 26 9 14 1024.6 1024.6 1.8
22/07:00pm 13.4 9.7 11.6 89 1.0 WSW 22 28 12 15 1024.2 1024.2 1.8
22/06:30pm 13.2 9.6 11.8 91 0.7 SW 22 32 12 17 1024.1 1024.1 1.8
22/06:00pm 13.1 8.7 11.7 91 0.7 SW 26 37 14 20 1023.8 1023.8 1.8
22/05:30pm 13.4 10.0 12.5 94 0.5 SW 22 33 12 18 1023.5 1023.5 1.8
22/05:00pm 13.8 10.0 12.4 91 0.8 SW 24 35 13 19 1023.3 1023.3 1.8
22/04:30pm 13.5 9.0 12.6 94 0.5 SW 28 35 15 19 1023.1 1023.1 1.6
22/04:00pm 14.3 10.4 13.3 94 0.6 WSW 26 37 14 20 1022.7 1022.7 1.4
22/03:30pm 14.5 10.6 13.2 92 0.7 WSW 26 37 14 20 1022.6 1022.6 1.4
22/03:00pm 14.3 9.6 13.3 94 0.6 WSW 30 39 16 21 1022.4 1022.4 1.2
22/02:40pm 14.2 9.6 13.4 95 0.4 WSW 30 48 16 26 1022.2 1022.2 1.2
22/02:30pm 14.3 8.7 13.3 94 0.6 WSW 35 48 19 26 1022.2 1022.2 1.2
22/02:22pm 15.0 10.3 13.2 89 1.0 WSW 30 48 16 26 1022.1 1022.1 0.8
22/02:00pm 15.1 10.5 13.6 91 0.8 WSW 30 39 16 21 1021.9 1021.9 0.8
22/01:30pm 15.3 11.5 13.5 89 1.0 WSW 26 37 14 20 1021.8 1021.8 0.8
22/01:00pm 14.6 10.3 13.3 92 0.7 WSW 28 39 15 21 1021.9 1021.9 0.8
22/12:30pm 14.4 10.2 13.4 94 0.6 WSW 28 41 15 22 1021.9 1021.9 0.8
22/12:00pm 14.7 10.7 13.1 90 0.9 WSW 26 37 14 20 1022.1 1022.1 0.8
22/11:30am 14.5 9.4 13.2 92 0.7 WSW 32 41 17 22 1022.1 1022.1 0.8
22/11:00am 14.7 9.6 13.1 90 0.9 WSW 32 46 17 25 1022.0 1022.0 0.8
22/10:30am 14.7 9.7 13.4 92 0.7 WSW 32 46 17 25 1021.8 1021.8 0.8
22/10:00am 14.4 9.5 13.6 95 0.4 WSW 32 46 17 25 1021.6 1021.6 0.8
22/09:30am 14.3 9.2 13.7 96 0.3 WSW 33 46 18 25 1021.3 1021.3 0.4
22/09:04am 14.3 10.1 13.5 95 0.4 WSW 28 48 15 26 1021.2 1021.2 0.0
22/09:00am 14.4 10.7 13.8 96 0.3 WSW 26 39 14 21 1021.2 1021.2 2.4
22/08:30am 14.2 10.0 13.4 95 0.4 WSW 28 43 15 23 1021.0 1021.0 2.0
22/08:23am 14.2 10.0 13.4 95 0.4 WSW 28 46 15 25 1020.9 1020.9 2.0
22/08:00am 14.3 9.3 13.3 94 0.6 WSW 32 43 17 23 1020.5 1020.5 1.8
22/07:30am 14.2 9.5 13.2 94 0.6 WSW 30 43 16 23 1020.5 1020.5 1.6
22/07:01am 14.5 8.8 13.0 91 0.8 W 35 56 19 30 1020.1 1020.1 1.6
22/07:00am 14.5 8.4 12.9 90 0.9 W 37 56 20 30 1020.1 1020.1 1.6
22/06:30am 14.4 9.1 13.0 91 0.8 W 33 54 18 29 1019.7 1019.7 1.6
22/06:00am 14.3 8.6 13.0 92 0.7 W 35 54 19 29 1019.7 1019.7 1.6
22/05:46am 14.4 9.2 12.8 90 0.9 W 32 50 17 27 1019.5 1019.5 1.6
22/05:30am 14.4 8.6 12.6 89 1.0 W 35 52 19 28 1019.5 1019.5 1.6
22/05:00am 14.3 8.8 12.3 88 1.1 W 33 48 18 26 1019.4 1019.4 1.6
22/04:51am 14.3 8.8 12.5 89 1.0 W 33 52 18 28 1019.4 1019.4 1.6
22/04:30am 14.4 8.1 12.3 87 1.1 W 37 54 20 29 1019.2 1019.2 1.6
22/04:20am 14.4 8.9 12.6 89 1.0 W 33 57 18 31 1019.1 1019.1 1.6
22/04:00am 14.4 8.5 12.4 88 1.1 W 35 54 19 29 1019.2 1019.2 1.6
22/03:30am 14.4 8.5 12.4 88 1.1 W 35 50 19 27 1019.3 1019.3 1.6
22/03:00am 14.2 8.7 12.6 90 0.9 W 33 46 18 25 1019.3 1019.3 1.6
22/02:42am 14.1 8.6 12.5 90 0.9 W 33 54 18 29 1019.4 1019.4 1.6
22/02:30am 14.2 8.8 12.2 88 1.1 W 32 48 17 26 1019.3 1019.3 1.6
22/02:08am 14.1 8.2 12.3 89 1.0 W 35 54 19 29 1018.9 1018.9 1.6
22/02:00am 14.0 8.1 12.4 90 0.9 W 35 52 19 28 1019.3 1019.3 1.4
22/01:30am 14.6 9.1 11.7 83 1.6 W 32 48 17 26 1019.2 1019.2 1.4
22/01:06am 14.6 8.9 11.9 84 1.5 W 33 52 18 28 1019.3 1019.3 1.4
22/01:00am 14.6 9.0 11.4 81 1.7 W 32 48 17 26 1019.2 1019.2 1.4
22/12:39am 14.4 8.7 11.9 85 1.3 W 33 56 18 30 1019.3 1019.3 1.4
22/12:30am 14.4 8.3 11.7 84 1.4 W 35 48 19 26 1019.4 1019.4 1.4
22/12:11am 14.5 9.4 12.0 85 1.4 W 30 56 16 30 1019.4 1019.4 1.4
22/12:00am 14.4 9.7 12.1 86 1.2 W 28 43 15 23 1019.6 1019.6 1.4
 
Date/Time
EST
Temp
°C
App
Temp
°C
Dew
Point
°C
Rel
Hum
%
Delta-T
°C
Wind Press
QNH
hPa
Press
MSL
hPa
Rain since
9am
mm
Dir  Spd
km/h
Gust
km/h
Spd
kts
Gust
kts
21/11:30pm 14.1 8.6 12.3 89 1.0 W 33 44 18 24 1019.4 1019.4 1.4
21/11:14pm 13.8 9.2 12.2 90 0.9 W 28 48 15 26 1019.2 1019.2 1.4
21/11:00pm 13.9 8.5 12.1 89 1.0 W 32 44 17 24 1019.4 1019.4 1.2
21/10:46pm 13.8 8.7 12.0 89 1.0 W 30 48 16 26 1019.5 1019.5 1.2
21/10:30pm 12.8 10.0 11.2 90 0.8 WNW 17 32 9 17 1019.9 1019.9 1.2
21/10:22pm 13.4 7.5 11.1 86 1.2 W 33 54 18 29 1020.0 1020.0 1.2
21/10:00pm 15.0 9.1 11.0 77 2.1 W 33 44 18 24 1019.7 1019.7 1.2
21/09:35pm 14.7 9.4 11.1 79 1.9 W 30 50 16 27 1019.6 1019.6 1.2
21/09:30pm 14.7 8.7 10.9 78 2.0 W 33 50 18 27 1019.7 1019.7 1.2
21/09:00pm 14.2 10.3 10.8 80 1.8 WNW 22 35 12 19 1019.8 1019.8 1.2
21/08:30pm 13.8 9.2 11.1 84 1.4 W 26 39 14 21 1019.9 1019.9 1.2
21/08:00pm 13.7 7.9 10.9 83 1.5 W 32 43 17 23 1020.0 1020.0 1.2
21/07:30pm 13.2 7.2 10.2 82 1.6 W 32 46 17 25 1019.9 1019.9 1.2
21/07:00pm 13.1 7.7 11.0 87 1.1 W 30 41 16 22 1020.3 1020.3 1.0
21/06:30pm 13.1 7.8 9.9 81 1.6 W 28 39 15 21 1020.3 1020.3 1.0
21/06:00pm 13.8 8.8 9.5 75 2.2 W 26 33 14 18 1019.9 1019.9 1.0
21/05:42pm 13.8 8.4 9.5 75 2.2 W 28 46 15 25 1019.7 1019.7 0.8
21/05:30pm 13.4 7.4 10.0 80 1.8 W 32 44 17 24 1019.5 1019.5 0.8
21/05:00pm 13.9 8.9 11.1 83 1.5 WSW 28 39 15 21 1019.5 1019.5 0.8
21/04:30pm 14.0 8.4 10.2 78 2.0 W 30 46 16 25 1019.2 1019.2 0.8
21/04:02pm 13.6 7.7 11.0 84 1.4 W 33 52 18 28 1019.2 1019.2 0.8
21/04:00pm 13.9 7.9 10.7 81 1.7 W 33 48 18 26 1019.2 1019.2 0.8
21/03:36pm 13.4 7.9 11.8 90 0.9 WSW 32 50 17 27 1019.1 1019.1 0.8
21/03:30pm 14.1 8.3 10.9 81 1.7 W 32 44 17 24 1019.0 1019.0 0.8
21/03:08pm 14.4 9.4 10.8 79 1.9 W 28 46 15 25 1018.8 1018.8 0.8
21/03:00pm 14.5 8.7 10.7 78 2.0 W 32 43 17 23 1018.9 1018.9 0.8
21/02:30pm 13.9 8.2 11.1 83 1.5 W 32 46 17 25 1019.0 1019.0 0.8
21/02:10pm 14.0 9.0 10.8 81 1.7 W 28 46 15 25 1018.8 1018.8 0.8
21/02:00pm 13.9 8.5 10.9 82 1.6 W 30 43 16 23 1018.9 1018.9 0.8
21/01:30pm 13.6 9.6 11.7 88 1.0 W 24 35 13 19 1019.1 1019.1 0.8
21/01:09pm 13.3 8.6 11.9 91 0.7 W 28 48 15 26 1019.5 1019.5 0.8
21/01:00pm 13.4 9.1 12.0 91 0.7 W 26 39 14 21 1019.4 1019.4 0.6
21/12:30pm 14.0 10.4 11.9 87 1.1 W 22 32 12 17 1019.7 1019.7 0.2

Other Formats:

Comma delimited format used in spreadsheet applications
http://www.bom.gov.au/fwo/IDV60801/IDV60801.94886.axf

JavaScript Object Notation format (JSON) in row-major order
http://www.bom.gov.au/fwo/IDV60801/IDV60801.94886.json